コペンハーゲン の空港の天気 - METARとTAF

コペンハーゲン国際空港 ( EKCH / CPH ) - デンマーク コペンハーゲン
飛行場実況気象(Metar)
観測時間05/23 02:50 CEST (05/23 00:50 UTC)
風向・風速西 1m/s
視程10km以上
天気現象
なし
気温11℃
湿度87%
気圧1021hPa
METAREKCH 230050Z 28001KT CAVOK 11/09 Q1021 NOSIG
過去の天気等 Google飛行場航空写真 Wunderground天気予報

過去48時間のMETAR

飛行場予報(TAF)
発表時間: 5/23 00:57 CEST (5/22 22:57 UTC)
予報対象時間: 23日2時 CEST ~ 24日2時 CEST
風向・風速南 4m/s
視程10km以上
なし
TAF EKCH 222257Z 2300/2324 18008KT CAVOK